Time;durP1;ratioP1;P1;durP2;ratioP2;P2;SDS_P1;SDS_P2;PMS_P1;PMS_P2;Temp;Humidity;BMP_temperature;BMP_pressure;BME280_temperature;BME280_humidity;BME280_pressure;Samples;Min_cycle;Max_cycle;Signal;HPM_P1;HPM_P2
2022/09/15 00:00:38;;;;;;;10.40;1.63;;;17.60;64.40;;;;;;4114946;28;20055;-42
2022/09/15 00:03:01;;;;;;;2.17;1.48;;;17.70;64.70;;;;;;4108997;28;20137;-42
2022/09/15 00:05:23;;;;;;;4.25;1.42;;;17.80;64.60;;;;;;4114535;28;20035;-38
2022/09/15 00:07:46;;;;;;;3.60;1.50;;;17.80;64.40;;;;;;4117172;28;20674;-40
2022/09/15 00:10:09;;;;;;;3.55;1.17;;;17.90;64.40;;;;;;4116834;28;20044;-39
2022/09/15 00:12:32;;;;;;;2.05;0.98;;;17.90;64.20;;;;;;4119023;28;20065;-41
2022/09/15 00:14:56;;;;;;;2.72;1.08;;;17.90;64.10;;;;;;4113461;28;20117;-43
2022/09/15 00:17:18;;;;;;;3.97;1.30;;;17.90;64.10;;;;;;4100974;28;20039;-41
2022/09/15 00:19:41;;;;;;;3.78;1.52;;;17.90;64.00;;;;;;4117631;28;20073;-38
2022/09/15 00:22:03;;;;;;;3.35;1.08;;;18.00;64.00;;;;;;4115474;28;20515;-39
2022/09/15 00:24:26;;;;;;;2.20;1.02;;;18.00;63.90;;;;;;4114221;28;20046;-43
2022/09/15 00:26:49;;;;;;;2.75;1.02;;;18.10;63.90;;;;;;4115949;28;20041;-42
2022/09/15 00:29:11;;;;;;;1.63;1.05;;;18.10;63.80;;;;;;4107302;28;20042;-41
2022/09/15 00:31:34;;;;;;;2.13;0.90;;;18.10;63.70;;;;;;4113659;28;20034;-39
2022/09/15 00:34:03;;;;;;;1.13;0.93;;;18.10;63.60;;;;;;4115459;28;20520;-42
2022/09/15 00:36:26;;;;;;;1.40;0.80;;;18.10;63.50;;;;;;4112651;28;20077;-46
2022/09/15 00:38:50;;;;;;;3.00;1.08;;;18.20;63.50;;;;;;4117929;28;20328;-44
2022/09/15 00:41:14;;;;;;;4.90;0.90;;;18.20;63.40;;;;;;4114307;28;20549;-41
2022/09/15 00:43:51;;;;;;;4.55;1.30;;;18.20;63.40;;;;;;4114735;28;20046;-40
2022/09/15 00:46:16;;;;;;;4.10;1.15;;;18.20;64.00;;;;;;4116078;28;20045;-40
2022/09/15 00:48:45;;;;;;;1.23;0.90;;;18.20;63.20;;;;;;4117515;28;20065;-41
2022/09/15 00:51:09;;;;;;;1.40;0.90;;;18.30;63.20;;;;;;4117163;28;20531;-42
2022/09/15 00:53:33;;;;;;;2.40;1.00;;;18.30;63.00;;;;;;4112835;28;20542;-43
2022/09/15 00:55:57;;;;;;;1.98;1.00;;;18.30;63.00;;;;;;4111309;28;20162;-37
2022/09/15 00:58:36;;;;;;;2.63;1.15;;;18.40;63.40;;;;;;4114884;28;20402;-40
2022/09/15 04:37:28;;;;;;;4.80;1.10;;;19.40;62.80;;;;;;4295624;23;20051;-43
2022/09/15 04:39:51;;;;;;;2.03;1.23;;;19.40;62.90;;;;;;4136763;23;21307;-42
2022/09/15 04:42:14;;;;;;;1.52;1.00;;;19.40;62.90;;;;;;4093291;28;21001;-44
2022/09/15 04:44:36;;;;;;;1.50;0.98;;;19.40;62.90;;;;;;4080304;28;20407;-45
2022/09/15 04:46:59;;;;;;;1.65;0.80;;;19.40;63.10;;;;;;4097538;28;20046;-43
2022/09/15 04:49:21;;;;;;;1.05;0.90;;;19.40;63.00;;;;;;4087224;28;20133;-43
2022/09/15 04:51:44;;;;;;;0.68;0.68;;;19.40;63.10;;;;;;4094552;28;20085;-46
2022/09/15 04:54:07;;;;;;;1.15;0.80;;;19.40;63.20;;;;;;4092210;28;20151;-42
2022/09/15 04:56:30;;;;;;;1.35;1.08;;;19.40;63.20;;;;;;4093035;28;20317;-43
2022/09/15 04:58:57;;;;;;;1.45;0.90;;;19.40;63.80;;;;;;4091960;28;20137;-45
2022/09/15 05:01:23;;;;;;;3.38;1.30;;;19.40;63.20;;;;;;4092517;28;20172;-46
2022/09/15 05:05:56;;;;;;;3.88;1.08;;;19.50;63.10;;;;;;4151057;23;20552;-41
2022/09/15 05:08:19;;;;;;;3.38;0.98;;;19.50;63.10;;;;;;4091015;28;20584;-41
2022/09/15 05:10:41;;;;;;;1.88;1.10;;;19.50;63.20;;;;;;4095886;28;20446;-40
2022/09/15 05:13:04;;;;;;;1.85;0.80;;;19.50;63.20;;;;;;4093360;28;20414;-40
2022/09/15 05:15:27;;;;;;;1.13;0.70;;;19.50;63.20;;;;;;4095336;28;20051;-41
2022/09/15 05:17:50;;;;;;;1.38;0.82;;;19.50;63.10;;;;;;4093127;28;20517;-40
2022/09/15 05:20:12;;;;;;;2.45;1.00;;;19.60;63.20;;;;;;4085264;28;20031;-40
2022/09/15 05:22:35;;;;;;;1.92;1.05;;;19.60;63.10;;;;;;4094356;28;20043;-40
2022/09/15 05:24:58;;;;;;;2.65;1.10;;;19.70;63.10;;;;;;4091291;28;20129;-40
2022/09/15 05:27:20;;;;;;;2.40;1.10;;;19.70;62.90;;;;;;4093155;28;20085;-40
2022/09/15 05:29:43;;;;;;;1.52;0.88;;;19.70;62.70;;;;;;4092847;28;20038;-40
2022/09/15 05:32:06;;;;;;;2.25;1.13;;;19.80;62.90;;;;;;4092062;28;20215;-40
2022/09/15 05:34:28;;;;;;;1.17;0.93;;;19.80;62.90;;;;;;4092138;28;20034;-39
2022/09/15 05:36:51;;;;;;;1.75;1.00;;;19.80;62.90;;;;;;4093456;28;20046;-40
2022/09/15 05:39:13;;;;;;;1.80;0.85;;;19.70;63.00;;;;;;4093437;28;20205;-40
2022/09/15 05:41:36;;;;;;;2.35;1.08;;;19.70;63.10;;;;;;4087958;28;20039;-40
2022/09/15 05:43:59;;;;;;;2.05;0.98;;;19.70;63.10;;;;;;4095784;28;20051;-41
2022/09/15 05:46:21;;;;;;;1.33;0.90;;;19.80;63.10;;;;;;4094206;28;20097;-40
2022/09/15 05:48:45;;;;;;;0.98;0.85;;;19.80;63.10;;;;;;4093790;28;20108;-40
2022/09/15 05:51:07;;;;;;;1.57;1.00;;;19.80;63.10;;;;;;4092636;28;20065;-40
2022/09/15 05:53:32;;;;;;;1.30;1.00;;;19.80;63.00;;;;;;4092904;28;20293;-44
2022/09/15 05:55:56;;;;;;;1.20;0.98;;;19.80;63.00;;;;;;4091675;28;20046;-40
2022/09/15 05:58:19;;;;;;;0.93;0.70;;;19.90;63.20;;;;;;4092274;28;20049;-41
2022/09/15 06:00:42;;;;;;;3.30;1.05;;;19.90;63.20;;;;;;4090367;28;20039;-43
2022/09/15 06:03:04;;;;;;;1.30;0.98;;;19.90;63.20;;;;;;4091503;28;20535;-43
2022/09/15 06:05:28;;;;;;;2.15;1.05;;;19.90;63.20;;;;;;4087972;28;20477;-40
2022/09/15 06:07:53;;;;;;;4.80;2.10;;;19.90;62.90;;;;;;4090007;28;20031;-44
2022/09/15 06:10:17;;;;;;;3.15;1.50;;;19.90;62.40;;;;;;4090791;28;20026;-43
2022/09/15 06:12:39;;;;;;;2.85;1.52;;;19.90;62.70;;;;;;4090070;28;20501;-42
2022/09/15 06:15:02;;;;;;;3.17;1.60;;;19.80;62.90;;;;;;4090604;28;20039;-41
2022/09/15 06:17:24;;;;;;;4.93;1.63;;;19.80;63.10;;;;;;4091598;28;20039;-40
2022/09/15 06:19:47;;;;;;;2.85;1.50;;;19.80;63.40;;;;;;4090480;28;20039;-42
2022/09/15 06:22:10;;;;;;;4.40;1.55;;;19.80;63.60;;;;;;4090292;28;20038;-42
2022/09/15 06:24:33;;;;;;;4.80;1.33;;;19.80;63.70;;;;;;4090715;28;20046;-44
2022/09/15 06:26:55;;;;;;;2.30;1.23;;;19.80;63.70;;;;;;4090337;28;20053;-47
2022/09/15 06:29:18;;;;;;;4.78;1.55;;;19.80;63.80;;;;;;4092727;28;20438;-44
2022/09/15 06:31:41;;;;;;;3.33;1.20;;;19.80;63.90;;;;;;4077683;28;20058;-42
2022/09/15 06:34:04;;;;;;;2.40;1.38;;;19.80;63.90;;;;;;4091499;28;20047;-42
2022/09/15 06:36:28;;;;;;;5.00;1.80;;;19.80;63.90;;;;;;4075759;28;20140;-41
2022/09/15 06:38:51;;;;;;;4.57;1.50;;;19.80;64.20;;;;;;4090947;28;20042;-41
2022/09/15 06:41:15;;;;;;;5.40;1.83;;;19.80;64.20;;;;;;4090206;28;20058;-43
2022/09/15 06:43:37;;;;;;;8.35;2.30;;;19.80;64.30;;;;;;4092339;28;20435;-43
2022/09/15 06:46:08;;;;;;;4.55;1.50;;;19.80;64.30;;;;;;4087533;28;20507;-43
2022/09/15 06:48:31;;;;;;;3.83;1.50;;;19.80;64.30;;;;;;4089447;28;20043;-42
2022/09/15 06:50:54;;;;;;;3.05;1.30;;;19.80;64.30;;;;;;4092815;28;20035;-43
2022/09/15 06:53:17;;;;;;;3.85;1.17;;;19.80;64.30;;;;;;4095469;28;20067;-44
2022/09/15 06:55:40;;;;;;;2.95;1.33;;;19.80;64.40;;;;;;4098359;28;20054;-42
2022/09/15 06:58:03;;;;;;;4.32;1.60;;;19.80;65.00;;;;;;4098701;28;20142;-42
2022/09/15 07:00:26;;;;;;;4.22;1.55;;;19.80;64.50;;;;;;4098970;28;20030;-41
2022/09/15 07:02:49;;;;;;;4.60;1.40;;;19.80;64.40;;;;;;4099490;28;20097;-48
2022/09/15 07:05:12;;;;;;;3.08;1.80;;;19.80;64.00;;;;;;4098772;28;20069;-47
2022/09/15 07:07:34;;;;;;;7.80;1.88;;;19.80;63.70;;;;;;4100787;28;20053;-46
2022/09/15 07:09:57;;;;;;;5.82;1.95;;;19.80;63.90;;;;;;4099289;28;20039;-55
2022/09/15 07:12:19;;;;;;;3.38;1.42;;;19.70;63.90;;;;;;4100488;28;20047;-52
2022/09/15 07:14:42;;;;;;;4.47;1.63;;;19.70;64.00;;;;;;4090030;28;20118;-51
2022/09/15 07:17:05;;;;;;;7.65;1.90;;;19.80;64.30;;;;;;4103695;28;20042;-52
2022/09/15 07:19:27;;;;;;;6.35;1.70;;;19.80;64.30;;;;;;4102427;28;20035;-54
2022/09/15 07:21:51;;;;;;;3.97;1.60;;;19.80;64.40;;;;;;4088741;28;20168;-49
2022/09/15 07:24:14;;;;;;;15.77;2.00;;;19.70;64.50;;;;;;4100012;28;20233;-46
2022/09/15 07:26:38;;;;;;;5.22;1.63;;;19.70;64.50;;;;;;4100249;28;20498;-47
2022/09/15 07:29:03;;;;;;;9.35;1.38;;;19.80;64.70;;;;;;4100940;28;20046;-49
2022/09/15 07:31:30;;;;;;;6.97;1.40;;;19.80;64.70;;;;;;4102634;28;20031;-49
2022/09/15 07:33:52;;;;;;;4.68;1.55;;;19.70;64.60;;;;;;4085561;28;20134;-50
2022/09/15 07:36:16;;;;;;;6.13;2.00;;;19.70;64.70;;;;;;4100077;28;20035;-51
2022/09/15 07:38:44;;;;;;;3.88;1.52;;;19.70;64.90;;;;;;4101266;28;20145;-55
2022/09/15 07:41:12;;;;;;;4.60;1.70;;;19.80;64.90;;;;;;4096998;28;20051;-51
2022/09/15 07:43:35;;;;;;;4.78;1.45;;;19.80;64.90;;;;;;4099195;28;20061;-50
2022/09/15 07:45:58;;;;;;;3.67;1.77;;;19.80;65.00;;;;;;4100616;28;20042;-45
2022/09/15 07:48:21;;;;;;;4.55;1.40;;;19.80;65.00;;;;;;4098856;28;20058;-46
2022/09/15 07:50:46;;;;;;;2.33;1.35;;;19.80;64.90;;;;;;4098948;28;20090;-46
2022/09/15 07:53:09;;;;;;;3.75;1.55;;;19.80;64.80;;;;;;4099201;28;20509;-51
2022/09/15 07:55:32;;;;;;;3.25;2.15;;;19.80;64.50;;;;;;4098100;28;20038;-44
2022/09/15 07:57:59;;;;;;;3.70;1.80;;;19.80;63.20;;;;;;4086371;28;20032;-45
2022/09/15 08:00:22;;;;;;;3.17;1.85;;;19.80;63.70;;;;;;4085332;28;20076;-50
2022/09/15 08:02:44;;;;;;;3.65;1.70;;;19.70;64.00;;;;;;4102560;28;20078;-48
2022/09/15 08:05:07;;;;;;;2.97;1.48;;;19.70;64.30;;;;;;4102863;28;20059;-47
2022/09/15 08:07:30;;;;;;;3.17;1.70;;;19.70;64.40;;;;;;4101865;28;20039;-44
2022/09/15 08:09:52;;;;;;;1.95;1.35;;;19.70;64.40;;;;;;4102749;28;20098;-45
2022/09/15 08:12:24;;;;;;;2.10;1.40;;;19.80;64.60;;;;;;4103938;28;20039;-48
2022/09/15 08:14:47;;;;;;;2.38;1.52;;;19.80;64.60;;;;;;4101399;28;20113;-48
2022/09/15 08:17:10;;;;;;;2.25;1.13;;;19.80;65.30;;;;;;4099155;28;20054;-49
2022/09/15 08:19:34;;;;;;;6.25;1.83;;;19.80;64.70;;;;;;4085213;28;20849;-47
2022/09/15 08:21:57;;;;;;;3.78;1.40;;;19.80;64.70;;;;;;4096010;28;20788;-52
2022/09/15 08:24:21;;;;;;;2.72;1.20;;;19.80;64.90;;;;;;4096209;28;20046;-46
2022/09/15 08:26:43;;;;;;;;;;;19.80;64.90;;;;;;4096171;28;20043;-47
2022/09/15 08:29:06;;;;;;;3.10;1.60;;;19.80;64.80;;;;;;4099123;28;19914;-51
2022/09/15 08:31:29;;;;;;;1.92;1.33;;;19.80;64.70;;;;;;4096212;28;20128;-54
2022/09/15 08:33:54;;;;;;;2.03;1.33;;;19.80;64.80;;;;;;4092990;28;20035;-45
2022/09/15 08:36:17;;;;;;;3.67;1.73;;;19.80;64.80;;;;;;4086198;28;20053;-54
2022/09/15 08:38:41;;;;;;;2.78;1.20;;;19.80;64.90;;;;;;4099100;28;20177;-46
2022/09/15 08:43:24;;;;;;;2.20;1.50;;;19.80;64.90;;;;;;4196868;23;19973;-47
2022/09/15 08:45:56;;;;;;;3.08;1.73;;;19.90;65.00;;;;;;4094820;28;20030;-45
2022/09/15 08:48:24;;;;;;;2.22;1.48;;;19.90;65.00;;;;;;4086543;28;20070;-48
2022/09/15 08:50:51;;;;;;;2.70;1.55;;;19.90;64.90;;;;;;4062935;28;20189;-45
2022/09/15 08:53:44;;;;;;;3.78;1.70;;;19.90;64.90;;;;;;4072526;28;20929;-49
2022/09/15 08:56:16;;;;;;;2.45;1.60;;;19.90;64.90;;;;;;4092391;28;20078;-43
2022/09/15 08:58:38;;;;;;;3.10;1.63;;;19.90;64.90;;;;;;4091186;28;20035;-46
2022/09/15 09:01:50;;;;;;;3.42;2.30;;;19.90;64.60;;;;;;4098602;28;20038;-45
2022/09/15 09:04:32;;;;;;;3.33;2.45;;;19.90;64.20;;;;;;4069836;28;20099;-48
2022/09/15 09:07:17;;;;;;;5.07;2.67;;;19.90;64.10;;;;;;4076377;28;20050;-49
2022/09/15 09:10:04;;;;;;;3.35;2.50;;;19.90;64.00;;;;;;4079149;28;20106;-46
2022/09/15 09:12:35;;;;;;;4.22;2.63;;;19.90;64.00;;;;;;4075542;28;20513;-48
2022/09/15 09:15:19;;;;;;;4.40;2.60;;;19.90;63.90;;;;;;4080413;28;20031;-49
2022/09/15 09:18:12;;;;;;;7.32;2.90;;;19.80;64.10;;;;;;4077464;28;20039;-48
2022/09/15 09:20:50;;;;;;;3.72;2.45;;;19.80;64.50;;;;;;4071556;28;20066;-50
2022/09/15 09:23:17;;;;;;;4.78;2.53;;;19.80;64.80;;;;;;4074640;28;20090;-48
2022/09/15 09:25:42;;;;;;;4.72;3.20;;;19.80;64.50;;;;;;4073587;28;20118;-47
2022/09/15 09:28:11;;;;;;;5.20;3.47;;;19.90;63.90;;;;;;4073486;28;20593;-50
2022/09/15 09:30:36;;;;;;;4.07;3.20;;;19.80;64.00;;;;;;4073087;28;20039;-51
2022/09/15 09:33:29;;;;;;;4.15;2.80;;;19.80;64.20;;;;;;4074678;28;20043;-47
2022/09/15 09:35:58;;;;;;;5.10;3.50;;;19.80;64.50;;;;;;4071424;28;20874;-47
2022/09/15 09:38:24;;;;;;;8.55;3.28;;;19.70;64.70;;;;;;4074362;28;20145;-50
2022/09/15 09:40:48;;;;;;;8.40;3.13;;;19.70;64.70;;;;;;4073107;28;20043;-51
2022/09/15 09:43:13;;;;;;;3.70;2.58;;;19.70;64.80;;;;;;4074057;28;20043;-53
2022/09/15 09:45:35;;;;;;;3.60;2.47;;;19.70;64.70;;;;;;4073723;28;20055;-50
2022/09/15 09:48:24;;;;;;;3.67;2.33;;;19.70;64.60;;;;;;4073151;28;20350;-50
2022/09/15 09:50:49;;;;;;;3.10;2.13;;;19.70;64.50;;;;;;4062830;28;20047;-50
2022/09/15 09:53:28;;;;;;;3.75;1.98;;;19.70;64.30;;;;;;4074721;28;20138;-53
2022/09/15 09:55:53;;;;;;;3.70;2.40;;;19.70;64.20;;;;;;4078579;28;20059;-55
2022/09/15 09:58:23;;;;;;;2.28;1.70;;;19.70;64.20;;;;;;4078854;28;20043;-53
2022/09/15 10:00:47;;;;;;;4.60;2.38;;;19.70;64.30;;;;;;4074741;28;20047;-48
2022/09/15 10:03:22;;;;;;;5.88;2.30;;;19.70;64.50;;;;;;4079058;28;20051;-52
2022/09/15 10:06:02;;;;;;;3.13;2.00;;;19.70;64.90;;;;;;4079936;28;20046;-52
2022/09/15 10:08:25;;;;;;;4.50;2.10;;;19.70;65.10;;;;;;4084334;28;20042;-48
2022/09/15 10:10:58;;;;;;;3.97;2.05;;;19.70;65.30;;;;;;4071729;28;20044;-47
2022/09/15 10:13:21;;;;;;;4.57;2.38;;;19.70;65.50;;;;;;4075491;28;20035;-47
2022/09/15 10:15:56;;;;;;;3.25;2.30;;;19.80;65.60;;;;;;4072875;28;20814;-47
2022/09/15 10:18:33;;;;;;;6.05;2.10;;;19.80;65.70;;;;;;4079944;28;20458;-52
2022/09/15 10:20:56;;;;;;;4.07;2.20;;;19.80;65.70;;;;;;4076491;28;20047;-50
2022/09/15 10:23:22;;;;;;;3.50;2.40;;;19.80;65.90;;;;;;4077052;28;20047;-51
2022/09/15 10:25:49;;;;;;;4.70;2.53;;;19.90;65.90;;;;;;4080548;28;20355;-51
2022/09/15 10:28:15;;;;;;;5.57;2.40;;;19.80;66.00;;;;;;4080070;28;20456;-46
2022/09/15 10:30:55;;;;;;;7.25;2.85;;;19.80;65.90;;;;;;4077999;28;20073;-63
2022/09/15 10:33:26;;;;;;;5.28;3.05;;;19.90;65.50;;;;;;4075986;28;20039;-43
2022/09/15 10:35:49;;;;;;;6.57;3.20;;;19.90;65.20;;;;;;4080708;28;20051;-45
2022/09/15 10:38:16;;;;;;;5.03;3.00;;;19.90;65.10;;;;;;4080081;28;20122;-50
2022/09/15 10:40:53;;;;;;;5.35;3.28;;;19.80;64.90;;;;;;4079566;28;20035;-55
2022/09/15 10:43:34;;;;;;;6.03;3.30;;;19.80;65.00;;;;;;4080165;28;20141;-53
2022/09/15 10:46:12;;;;;;;5.25;3.47;;;19.70;65.00;;;;;;4075597;28;20281;-56
2022/09/15 10:48:54;;;;;;;5.18;2.63;;;19.70;65.10;;;;;;4067740;28;20091;-44
2022/09/15 10:51:50;;;;;;;5.50;3.03;;;19.70;65.30;;;;;;4081291;28;20047;-43
2022/09/15 10:54:28;;;;;;;5.93;3.03;;;19.70;65.40;;;;;;4082581;28;20069;-46
2022/09/15 10:56:59;;;;;;;3.80;2.58;;;19.70;65.50;;;;;;4088564;28;20066;-43
2022/09/15 10:59:44;;;;;;;3.42;2.03;;;19.60;65.40;;;;;;4085799;28;20098;-45
2022/09/15 11:02:31;;;;;;;3.70;2.10;;;19.70;65.30;;;;;;4085668;28;20039;-43
2022/09/15 11:05:16;;;;;;;3.97;2.47;;;19.70;65.30;;;;;;4082034;28;20620;-43
2022/09/15 11:07:46;;;;;;;2.95;2.03;;;19.60;65.20;;;;;;4083705;28;20133;-43
2022/09/15 11:10:21;;;;;;;3.30;2.20;;;19.60;65.20;;;;;;4082926;28;20039;-45
2022/09/15 11:12:53;;;;;;;2.53;1.75;;;19.60;65.10;;;;;;4080338;28;20525;-43
2022/09/15 11:15:37;;;;;;;3.50;1.90;;;19.60;65.10;;;;;;4078210;28;20483;-47
2022/09/15 11:18:47;;;;;;;3.80;2.03;;;19.60;65.10;;;;;;4077895;28;20043;-40
2022/09/15 11:21:28;;;;;;;2.50;1.85;;;19.60;65.10;;;;;;4076224;28;20043;-43
2022/09/15 11:24:20;;;;;;;2.90;1.90;;;19.60;65.20;;;;;;4081934;28;20487;-42
2022/09/15 11:27:11;;;;;;;2.53;1.80;;;19.60;65.10;;;;;;4080592;28;20841;-41
2022/09/15 11:30:00;;;;;;;2.80;1.95;;;19.60;65.10;;;;;;4073318;28;20539;-42
2022/09/15 11:32:40;;;;;;;1.95;1.52;;;19.60;65.20;;;;;;4080949;28;20431;-40
2022/09/15 11:35:41;;;;;;;2.05;1.55;;;19.50;65.10;;;;;;4078759;28;20102;-45
2022/09/15 11:38:17;;;;;;;2.75;1.60;;;19.50;65.10;;;;;;4081042;28;20384;-41
2022/09/15 11:40:47;;;;;;;2.28;1.40;;;19.50;65.20;;;;;;4083254;28;20070;-45
2022/09/15 11:43:17;;;;;;;3.97;1.98;;;19.50;65.20;;;;;;4085526;28;20055;-42
2022/09/15 11:45:47;;;;;;;3.45;2.40;;;19.50;65.30;;;;;;4079955;28;20050;-42
2022/09/15 11:48:23;;;;;;;4.75;1.90;;;19.50;65.50;;;;;;4084472;28;20085;-42
2022/09/15 11:50:53;;;;;;;7.63;1.95;;;19.50;65.50;;;;;;4081539;28;20039;-42
2022/09/15 11:53:37;;;;;;;4.47;2.00;;;19.50;65.40;;;;;;4084053;28;20039;-41
2022/09/15 11:56:21;;;;;;;5.63;3.05;;;19.50;65.40;;;;;;4083464;28;20067;-41
2022/09/15 11:59:09;;;;;;;5.13;3.67;;;19.50;65.60;;;;;;4073266;28;20043;-41
2022/09/15 12:01:47;;;;;;;6.10;3.70;;;19.50;65.90;;;;;;4074273;28;20047;-40
2022/09/15 12:04:34;;;;;;;5.70;3.05;;;19.50;66.40;;;;;;4076355;28;20535;-40
2022/09/15 12:07:12;;;;;;;4.18;3.20;;;19.50;67.00;;;;;;4079904;28;20050;-41
2022/09/15 12:09:35;;;;;;;3.55;2.40;;;19.50;67.30;;;;;;4079038;28;20119;-41
2022/09/15 12:12:05;;;;;;;3.40;2.25;;;19.50;67.40;;;;;;4081205;28;20113;-41
2022/09/15 12:14:50;;;;;;;3.33;2.17;;;19.50;67.50;;;;;;4083862;28;20388;-41
2022/09/15 12:17:42;;;;;;;4.00;2.30;;;19.60;67.70;;;;;;4082158;28;20035;-43
2022/09/15 12:20:15;;;;;;;4.20;1.90;;;19.60;67.80;;;;;;4081521;28;20044;-40
2022/09/15 12:23:10;;;;;;;6.10;2.20;;;19.60;67.90;;;;;;4081230;28;20109;-40
2022/09/15 12:25:42;;;;;;;9.52;2.30;;;19.60;67.90;;;;;;4082542;28;20043;-42
2022/09/15 12:28:23;;;;;;;4.57;2.03;;;19.60;67.90;;;;;;4079251;28;20542;-41
2022/09/15 12:30:47;;;;;;;5.75;2.63;;;19.70;67.80;;;;;;4083021;28;20566;-40
2022/09/15 12:33:44;;;;;;;5.63;2.20;;;19.60;67.80;;;;;;4080226;28;20588;-42
2022/09/15 12:36:35;;;;;;;6.38;2.13;;;19.70;67.90;;;;;;4080754;28;20517;-41
2022/09/15 12:39:00;;;;;;;7.60;2.53;;;19.60;67.90;;;;;;4082262;28;20174;-40
2022/09/15 12:41:24;;;;;;;6.45;2.03;;;19.70;68.00;;;;;;4080301;28;20497;-40
2022/09/15 12:43:58;;;;;;;;;;;19.70;68.00;;;;;;4076817;28;20162;-40
2022/09/15 12:46:23;;;;;;;6.13;2.20;;;19.70;68.10;;;;;;4081215;28;19919;-41
2022/09/15 12:48:46;;;;;;;3.95;1.60;;;19.70;68.20;;;;;;4076176;28;20058;-41
2022/09/15 12:51:10;;;;;;;6.63;1.80;;;19.70;68.10;;;;;;4072510;28;20126;-40
2022/09/15 12:53:37;;;;;;;4.90;2.00;;;19.70;68.10;;;;;;4075388;28;20074;-42
2022/09/15 12:56:10;;;;;;;5.22;2.00;;;19.70;68.00;;;;;;4074768;28;20038;-40
2022/09/15 12:58:40;;;;;;;4.10;2.05;;;19.70;68.20;;;;;;4093390;28;20542;-40
2022/09/15 13:01:24;;;;;;;3.80;1.60;;;19.70;68.30;;;;;;4080729;28;20062;-40
2022/09/15 13:03:49;;;;;;;6.43;1.77;;;19.70;68.30;;;;;;4078349;28;20054;-41
2022/09/15 13:06:34;;;;;;;5.70;2.22;;;19.70;68.40;;;;;;4080288;28;20035;-45
2022/09/15 13:09:05;;;;;;;;;;;19.70;68.40;;;;;;4079596;28;20101;-46
2022/09/15 13:11:37;;;;;;;7.85;1.58;;;19.70;68.50;;;;;;4077162;28;19925;-40
2022/09/15 13:14:29;;;;;;;4.13;1.50;;;19.70;68.30;;;;;;4078919;28;20075;-41
2022/09/15 13:17:07;;;;;;;3.42;1.63;;;19.70;68.30;;;;;;4075809;28;20141;-40
2022/09/15 13:19:42;;;;;;;3.65;1.45;;;19.70;68.40;;;;;;4077730;28;20043;-42
2022/09/15 13:22:37;;;;;;;2.65;1.05;;;19.70;68.40;;;;;;4080070;28;20047;-43
2022/09/15 13:25:15;;;;;;;1.77;1.20;;;19.70;68.30;;;;;;4080489;28;20087;-40
2022/09/15 13:27:40;;;;;;;2.65;1.17;;;19.70;68.50;;;;;;4089388;28;20478;-40
2022/09/15 13:30:47;;;;;;;7.63;1.80;;;19.70;68.40;;;;;;4078248;28;20047;-41
2022/09/15 13:33:44;;;;;;;4.70;1.35;;;19.60;68.60;;;;;;4079943;28;20118;-41
2022/09/15 13:36:23;;;;;;;4.80;1.55;;;19.70;68.70;;;;;;4078248;28;20471;-41
2022/09/15 13:39:05;;;;;;;7.60;1.80;;;19.70;68.60;;;;;;4078936;28;20118;-42
2022/09/15 13:41:58;;;;;;;3.78;1.52;;;19.60;68.80;;;;;;4078543;28;20131;-39
2022/09/15 13:44:58;;;;;;;4.57;1.63;;;19.60;68.60;;;;;;4076137;28;20058;-41
2022/09/15 13:47:32;;;;;;;3.20;1.67;;;19.70;68.90;;;;;;4076896;28;20047;-41
2022/09/15 13:50:29;;;;;;;5.30;1.50;;;19.60;68.90;;;;;;4075206;28;20039;-40
2022/09/15 13:53:19;;;;;;;3.70;1.20;;;19.70;68.90;;;;;;4069072;28;20054;-40
2022/09/15 13:55:44;;;;;;;7.43;1.63;;;19.70;68.90;;;;;;4081716;28;20047;-41
2022/09/15 13:58:17;;;;;;;2.63;1.30;;;19.60;68.80;;;;;;4080083;28;20045;-41
2022/09/15 14:00:54;;;;;;;4.47;1.30;;;19.70;69.50;;;;;;4081966;28;20476;-41
2022/09/15 14:03:24;;;;;;;4.93;1.30;;;19.70;68.90;;;;;;4079519;28;20074;-41
2022/09/15 14:05:49;;;;;;;2.00;1.20;;;19.60;68.90;;;;;;4077548;28;20118;-41
2022/09/15 14:08:23;;;;;;;2.30;1.02;;;19.60;69.00;;;;;;4076381;28;20043;-42
2022/09/15 14:10:54;;;;;;;4.32;1.15;;;19.70;69.00;;;;;;4077491;28;20062;-42
2022/09/15 14:13:21;;;;;;;3.28;1.10;;;19.70;68.90;;;;;;4080323;28;20043;-42
2022/09/15 14:15:58;;;;;;;3.92;0.93;;;19.60;68.90;;;;;;4078324;28;20086;-43
2022/09/15 14:18:20;;;;;;;2.95;1.23;;;19.70;68.90;;;;;;4055757;28;20174;-41
2022/09/15 14:20:43;;;;;;;3.60;0.95;;;19.60;69.00;;;;;;4077903;28;20440;-42
2022/09/15 14:23:16;;;;;;;2.30;0.93;;;19.60;69.10;;;;;;4077571;28;20043;-41
2022/09/15 14:25:44;;;;;;;1.60;0.95;;;19.60;68.90;;;;;;4076402;28;20047;-43
2022/09/15 14:28:18;;;;;;;;;;;19.60;68.90;;;;;;4077937;28;20071;-42
2022/09/15 14:30:46;;;;;;;2.10;1.02;;;19.60;68.90;;;;;;4092076;28;19914;-40
2022/09/15 14:33:16;;;;;;;11.10;2.80;;;19.60;68.90;;;;;;4078756;28;20035;-41
2022/09/15 14:35:44;;;;;;;3.42;1.23;;;19.60;69.00;;;;;;4078370;28;20046;-41
2022/09/15 14:38:18;;;;;;;1.88;1.20;;;19.60;69.00;;;;;;4079672;28;20057;-41
2022/09/15 14:40:41;;;;;;;4.35;1.58;;;19.60;69.10;;;;;;4076160;28;20514;-42
2022/09/15 14:43:24;;;;;;;5.00;1.40;;;19.60;69.20;;;;;;4080606;28;20047;-43
2022/09/15 14:45:47;;;;;;;3.70;1.02;;;19.60;69.30;;;;;;4075199;28;20039;-40
2022/09/15 14:48:19;;;;;;;6.63;1.40;;;19.60;69.20;;;;;;4075649;28;20043;-43
2022/09/15 14:50:53;;;;;;;3.78;1.23;;;19.60;69.20;;;;;;4079721;28;20399;-39
2022/09/15 14:53:23;;;;;;;6.25;2.15;;;19.60;69.20;;;;;;4080633;28;20047;-40
2022/09/15 14:55:55;;;;;;;6.57;1.70;;;19.60;69.40;;;;;;4080734;28;20049;-44
2022/09/15 14:58:30;;;;;;;7.68;1.40;;;19.60;69.40;;;;;;4081485;28;20129;-40
2022/09/15 15:01:14;;;;;;;6.28;1.60;;;19.60;69.30;;;;;;4077502;28;20126;-42
2022/09/15 15:03:49;;;;;;;5.63;1.42;;;19.60;69.30;;;;;;4077831;28;20054;-42
2022/09/15 15:06:14;;;;;;;6.30;1.40;;;19.60;69.30;;;;;;4082108;28;20047;-41
2022/09/15 15:08:59;;;;;;;10.38;1.30;;;19.60;69.20;;;;;;4076260;28;20106;-39
2022/09/15 15:11:22;;;;;;;6.70;2.05;;;19.60;69.30;;;;;;4079766;28;20051;-40
2022/09/15 15:13:50;;;;;;;7.50;1.50;;;19.60;69.40;;;;;;4079171;28;20043;-42
2022/09/15 15:16:29;;;;;;;3.75;1.80;;;19.60;69.50;;;;;;4079412;28;20061;-42
2022/09/15 15:18:55;;;;;;;6.53;2.03;;;19.60;69.50;;;;;;4081779;28;20033;-42
2022/09/15 15:21:47;;;;;;;10.90;2.35;;;19.60;69.20;;;;;;4086404;28;20109;-42
2022/09/15 15:24:21;;;;;;;5.72;1.90;;;19.60;69.20;;;;;;4083014;28;20127;-40
2022/09/15 15:26:45;;;;;;;;;;;19.60;69.20;;;;;;4093531;28;20058;-41
2022/09/15 15:29:27;;;;;;;8.25;1.65;;;19.60;69.10;;;;;;4080806;28;20171;-41
2022/09/15 15:31:50;;;;;;;7.85;2.33;;;19.60;69.00;;;;;;4087248;28;20400;-41
2022/09/15 15:34:24;;;;;;;4.88;2.38;;;19.60;69.20;;;;;;4086884;28;20046;-41
2022/09/15 15:36:47;;;;;;;6.13;1.90;;;19.60;69.00;;;;;;4080872;28;20143;-42
2022/09/15 15:39:24;;;;;;;7.50;1.50;;;19.50;68.90;;;;;;4083263;28;20047;-42
2022/09/15 15:41:47;;;;;;;3.63;1.40;;;19.50;68.80;;;;;;4081930;28;20870;-45
2022/09/15 15:44:17;;;;;;;4.72;1.20;;;19.50;69.00;;;;;;4082685;28;20483;-44
2022/09/15 15:47:10;;;;;;;4.32;1.40;;;19.50;68.80;;;;;;4084496;28;20039;-41
2022/09/15 15:49:33;;;;;;;1.92;1.10;;;19.50;68.80;;;;;;4083283;28;20355;-42
2022/09/15 15:52:00;;;;;;;2.58;1.40;;;19.50;68.80;;;;;;4082407;28;20039;-42
2022/09/15 15:54:24;;;;;;;2.85;1.58;;;19.50;68.80;;;;;;4080251;28;20192;-44
2022/09/15 15:56:47;;;;;;;3.20;1.40;;;19.50;68.80;;;;;;4083648;28;20039;-42
2022/09/15 15:59:12;;;;;;;1.53;1.00;;;19.50;68.80;;;;;;4078594;28;20452;-44
2022/09/15 16:01:35;;;;;;;9.75;1.77;;;19.50;68.80;;;;;;4085257;28;20321;-43
2022/09/15 16:03:58;;;;;;;5.93;1.55;;;19.50;69.00;;;;;;4079551;28;20133;-42
2022/09/15 16:06:21;;;;;;;3.95;1.50;;;19.50;69.10;;;;;;4078709;28;20061;-42
2022/09/15 16:08:45;;;;;;;4.50;1.43;;;19.50;69.00;;;;;;4074010;28;20494;-47
2022/09/15 16:11:11;;;;;;;5.90;1.80;;;19.50;69.00;;;;;;4081440;28;20415;-43
2022/09/15 16:13:34;;;;;;;8.60;1.60;;;19.40;68.90;;;;;;4077834;28;20131;-47
2022/09/15 16:15:59;;;;;;;3.40;1.60;;;19.40;69.10;;;;;;4078927;28;20110;-43
2022/09/15 16:18:22;;;;;;;3.88;1.55;;;19.40;69.00;;;;;;4079367;28;20290;-44
2022/09/15 16:20:46;;;;;;;1.73;1.30;;;19.40;69.00;;;;;;4077013;28;20031;-44
2022/09/15 16:23:14;;;;;;;2.58;1.33;;;19.40;68.80;;;;;;4084796;28;21002;-42
2022/09/15 16:25:42;;;;;;;2.22;1.00;;;19.40;68.70;;;;;;4084664;28;20927;-45
2022/09/15 16:28:06;;;;;;;1.73;0.90;;;19.40;68.60;;;;;;4084659;28;20085;-45
2022/09/15 16:30:29;;;;;;;2.75;1.20;;;19.40;68.60;;;;;;4077785;28;20043;-44
2022/09/15 16:32:54;;;;;;;3.45;1.15;;;19.40;68.70;;;;;;4077101;28;20508;-46
2022/09/15 16:35:28;;;;;;;1.65;1.23;;;19.40;68.70;;;;;;4081563;28;20042;-42
2022/09/15 16:37:51;;;;;;;1.92;1.40;;;19.40;68.90;;;;;;4082072;28;20051;-43
2022/09/15 16:40:16;;;;;;;2.25;1.30;;;19.40;68.80;;;;;;4079322;28;20049;-46
2022/09/15 16:42:42;;;;;;;4.45;1.60;;;19.40;68.90;;;;;;4072471;28;20519;-42